createdAt,value
2023-01-27T00:01:16.643Z,101723.34
2023-01-27T00:08:18.308Z,101713.81
2023-01-27T00:15:35.478Z,101719.03
2023-01-27T00:22:55.936Z,101717.38
2023-01-27T00:29:57.900Z,101716.47
2023-01-27T00:37:01.813Z,101718.66
2023-01-27T00:44:05.495Z,101720.75
2023-01-27T00:51:07.184Z,101732.03
2023-01-27T00:58:08.851Z,101730.59
2023-01-27T01:05:10.899Z,101735.00
2023-01-27T01:12:12.613Z,101739.63
2023-01-27T01:19:14.298Z,101740.56
2023-01-27T01:26:16.353Z,101738.72
2023-01-27T01:33:18.101Z,101745.78
2023-01-27T01:40:20.352Z,101742.91
2023-01-27T01:47:25.031Z,101750.97
2023-01-27T01:54:29.090Z,101754.41
2023-01-27T02:01:32.642Z,101752.91
2023-01-27T02:08:38.283Z,101754.19
2023-01-27T02:15:41.033Z,101749.44
2023-01-27T02:23:07.315Z,101743.84
2023-01-27T02:30:14.590Z,101755.16
2023-01-27T02:37:16.639Z,101742.97
2023-01-27T02:44:18.978Z,101750.69
2023-01-27T02:51:20.851Z,101755.28
2023-01-27T02:58:23.277Z,101769.28
2023-01-27T03:05:35.005Z,101774.75
2023-01-27T03:12:36.795Z,101779.16
2023-01-27T03:19:38.411Z,101771.91
2023-01-27T03:26:40.724Z,101768.31
2023-01-27T03:33:47.738Z,101772.00
2023-01-27T03:41:31.174Z,101770.97
2023-01-27T03:48:33.370Z,101774.69
2023-01-27T03:55:35.883Z,101768.31
2023-01-27T04:02:59.261Z,101776.28
2023-01-27T04:10:01.700Z,101765.53
2023-01-27T04:17:07.455Z,101774.34
2023-01-27T04:24:17.348Z,101774.53
2023-01-27T04:31:19.211Z,101781.59
2023-01-27T04:38:20.996Z,101786.00
2023-01-27T04:45:22.584Z,101786.91
2023-01-27T04:52:24.270Z,101785.09
2023-01-27T04:59:27.080Z,101788.72
2023-01-27T05:06:28.942Z,101794.03
2023-01-27T05:13:30.742Z,101806.50
2023-01-27T05:20:32.471Z,101811.94
2023-01-27T05:27:34.087Z,101818.09
2023-01-27T05:34:35.960Z,101825.78
2023-01-27T05:41:37.853Z,101826.72
2023-01-27T05:48:43.992Z,101823.13
2023-01-27T05:55:45.599Z,101832.94
2023-01-27T06:02:47.352Z,101832.00
2023-01-27T06:09:48.963Z,101835.66
2023-01-27T06:16:50.635Z,101830.41
2023-01-27T06:23:53.535Z,101822.22
2023-01-27T06:30:55.420Z,101831.16
2023-01-27T06:38:00.680Z,101843.63
2023-01-27T06:45:02.300Z,101844.47
2023-01-27T06:52:03.965Z,101859.47
2023-01-27T06:59:05.647Z,101855.03
2023-01-27T07:06:08.115Z,101854.84
2023-01-27T07:13:11.767Z,101860.28
2023-01-27T07:20:15.039Z,101864.66
2023-01-27T07:27:16.897Z,101875.28
2023-01-27T07:34:18.619Z,101880.44
2023-01-27T07:41:22.931Z,101883.16
2023-01-27T07:48:24.563Z,101884.03
2023-01-27T07:55:26.400Z,101888.56
2023-01-27T08:02:31.873Z,101884.09
2023-01-27T08:09:33.492Z,101895.06
2023-01-27T08:16:35.962Z,101892.13
2023-01-27T08:23:37.649Z,101893.22
2023-01-27T08:30:39.242Z,101890.13
2023-01-27T08:37:40.952Z,101905.88
2023-01-27T08:44:42.634Z,101918.13
2023-01-27T08:51:44.531Z,101924.66
2023-01-27T08:58:49.037Z,101930.47
2023-01-27T09:05:50.668Z,101932.97
2023-01-27T09:12:52.315Z,101927.28
2023-01-27T09:19:54.023Z,101942.38
2023-01-27T09:26:55.756Z,101946.19
2023-01-27T09:33:57.485Z,101956.72
2023-01-27T09:41:18.298Z,101953.03
2023-01-27T09:48:23.405Z,101969.94
2023-01-27T09:55:32.727Z,101959.84
2023-01-27T10:02:57.525Z,101964.91
2023-01-27T10:10:23.040Z,101964.38
2023-01-27T10:17:28.267Z,101969.09
2023-01-27T10:24:57.265Z,101967.81
2023-01-27T10:32:17.711Z,101980.69
2023-01-27T10:39:26.140Z,101984.94
2023-01-27T10:46:40.857Z,101988.66
2023-01-27T10:53:57.840Z,101979.31
2023-01-27T11:08:27.306Z,101981.94
2023-01-27T11:15:33.804Z,101980.41
2023-01-27T11:22:48.091Z,101979.97
2023-01-27T11:29:55.036Z,101978.84
2023-01-27T11:36:57.043Z,101972.84
2023-01-27T11:43:58.831Z,101969.97
2023-01-27T11:51:00.429Z,101965.38
2023-01-27T11:58:25.938Z,101968.13
2023-01-27T12:05:31.078Z,101964.72
2023-01-27T12:12:32.705Z,101970.66
2023-01-27T12:19:41.374Z,101971.13
2023-01-27T12:26:44.089Z,101973.47
2023-01-27T12:33:46.989Z,101962.47
2023-01-27T12:40:48.747Z,101978.00
2023-01-27T12:47:59.040Z,101963.81
2023-01-27T12:55:01.146Z,101969.41
2023-01-27T13:02:20.106Z,101973.56
2023-01-27T13:09:48.017Z,101984.03
2023-01-27T13:16:53.758Z,101989.00
2023-01-27T13:23:55.348Z,101984.03
2023-01-27T13:31:02.726Z,101985.59
2023-01-27T13:38:24.701Z,101979.31
2023-01-27T13:45:45.991Z,101985.06
2023-01-27T13:52:53.268Z,101992.16
2023-01-27T14:00:04.424Z,101999.63
2023-01-27T14:07:29.277Z,102001.97
2023-01-27T14:14:58.475Z,101999.94
2023-01-27T14:22:08.343Z,102015.00
2023-01-27T14:29:28.289Z,102018.19
2023-01-27T14:36:33.338Z,102014.97
2023-01-27T14:44:19.685Z,102019.31
2023-01-27T14:51:45.276Z,102027.69
2023-01-27T14:58:56.856Z,102034.19
2023-01-27T15:06:06.389Z,102040.34
2023-01-27T15:13:49.807Z,102046.84
2023-01-27T15:20:58.117Z,102046.25
2023-01-27T15:28:00.346Z,102051.97
2023-01-27T15:35:22.143Z,102055.16
2023-01-27T15:42:26.215Z,102062.09
2023-01-27T15:49:29.813Z,102078.06
2023-01-27T15:56:52.102Z,102077.00
2023-01-27T16:04:16.707Z,102086.81
2023-01-27T16:11:30.907Z,102096.41
2023-01-27T16:18:41.565Z,102102.47
2023-01-27T16:25:48.740Z,102097.75
2023-01-27T16:33:03.130Z,102094.84
2023-01-27T16:40:10.841Z,102098.56
2023-01-27T16:47:20.809Z,102107.28
2023-01-27T16:54:25.177Z,102117.47
2023-01-27T17:01:31.205Z,102116.63
2023-01-27T17:08:50.921Z,102123.22
2023-01-27T17:15:57.116Z,102134.41
2023-01-27T17:22:59.193Z,102127.81
2023-01-27T17:30:04.964Z,102137.69
2023-01-27T17:37:27.076Z,102133.50
2023-01-27T17:44:28.800Z,102132.13
2023-01-27T17:51:34.721Z,102141.75
2023-01-27T17:58:36.405Z,102157.34
2023-01-27T18:05:38.235Z,102168.22
2023-01-27T18:12:41.505Z,102169.00
2023-01-27T18:19:56.260Z,102172.78
2023-01-27T18:26:58.205Z,102187.91
2023-01-27T18:34:01.894Z,102189.59
2023-01-27T18:41:29.167Z,102195.81
2023-01-27T18:48:31.647Z,102201.91
2023-01-27T18:55:35.064Z,102202.69
2023-01-27T19:02:37.185Z,102207.97
2023-01-27T19:09:38.938Z,102208.88
2023-01-27T19:16:40.752Z,102219.66
2023-01-27T19:23:46.175Z,102211.75
2023-01-27T19:30:47.981Z,102216.38
2023-01-27T19:37:57.140Z,102219.88
2023-01-27T19:44:58.965Z,102221.59
2023-01-27T19:52:01.343Z,102236.22
2023-01-27T19:59:04.698Z,102234.19
2023-01-27T20:06:18.483Z,102236.91
2023-01-27T20:13:20.284Z,102240.66
2023-01-27T20:20:22.362Z,102245.22
2023-01-27T20:27:24.016Z,102245.16
2023-01-27T20:34:25.696Z,102243.50
2023-01-27T20:41:27.515Z,102254.28
2023-01-27T20:48:29.288Z,102259.31
2023-01-27T20:55:31.522Z,102269.47
2023-01-27T21:02:33.364Z,102263.19
2023-01-27T21:09:35.129Z,102273.31
2023-01-27T21:16:36.742Z,102276.88
2023-01-27T21:23:38.602Z,102273.38
2023-01-27T21:30:40.235Z,102276.25
2023-01-27T21:37:42.674Z,102265.38
2023-01-27T21:45:03.532Z,102275.88
2023-01-27T21:52:05.420Z,102270.50
2023-01-27T21:59:08.065Z,102268.88
2023-01-27T22:06:09.984Z,102267.13
2023-01-27T22:13:11.724Z,102276.97
2023-01-27T22:20:17.746Z,102278.72
2023-01-27T22:27:19.473Z,102266.50
2023-01-27T22:34:21.260Z,102267.47
2023-01-27T22:41:23.018Z,102268.38
2023-01-27T22:48:24.721Z,102258.81
2023-01-27T22:55:26.469Z,102267.72
2023-01-27T23:02:29.617Z,102264.09
2023-01-27T23:09:31.501Z,102260.63
2023-01-27T23:16:33.146Z,102250.91
2023-01-27T23:23:35.500Z,102262.53
2023-01-27T23:30:37.374Z,102234.06
2023-01-27T23:37:39.027Z,102235.97
2023-01-27T23:44:40.742Z,102238.66
2023-01-27T23:51:42.501Z,102239.50
2023-01-27T23:58:44.294Z,102247.59
